Noblesboro, New York
Current Conditions -  °F | °C
As of 10:06 AM on Wednesday 22 Oct 2014 (Local Time) from KRME Reporting Station
Broken Clouds Broken Clouds  
Wind Chill: 50°   Ceiling: 7500
Heat Index: 50°   Visibility: 10mi
Dew Point: 45°   Wind: 9mph
Humidity: 83%   Direction: 360°N
Pressure: 30.14"   Gusts: NA
Location:  43.4607°N, 74.933°W
Report Text: KRME 221406Z 36008KT 10SM SCT029 BKN075 10/07 A3014 RMK AO2 T01000072
Loading
Personal Weather Stations






























Interactive Weather Map
Tropical Storm Tracking
New forecast layout! Learn more

10-Day Weather Forecast

Advertisements
Track Severe Weather on mobile